sensor_id;sensor_type;location;lat;lon;timestamp;pressure;altitude;pressure_sealevel;temperature;humidity
44988;BME280;35735;52.226;21.254;2022-11-15T00:04:31;100785.31;;;6.78;100.00
44988;BME280;35735;52.226;21.254;2022-11-15T00:09:31;100788.84;;;6.77;100.00
44988;BME280;35735;52.226;21.254;2022-11-15T00:14:32;100780.78;;;6.76;100.00
44988;BME280;35735;52.226;21.254;2022-11-15T00:19:33;100770.03;;;6.76;100.00
44988;BME280;35735;52.226;21.254;2022-11-15T00:24:33;100762.03;;;6.77;100.00
44988;BME280;35735;52.226;21.254;2022-11-15T00:29:34;100760.19;;;6.76;100.00
44988;BME280;35735;52.226;21.254;2022-11-15T00:34:34;100751.28;;;6.77;100.00
44988;BME280;35735;52.226;21.254;2022-11-15T00:39:35;100741.59;;;6.84;100.00
44988;BME280;35735;52.226;21.254;2022-11-15T00:44:35;100737.91;;;6.79;100.00
44988;BME280;35735;52.226;21.254;2022-11-15T00:49:36;100737.06;;;6.81;100.00
44988;BME280;35735;52.226;21.254;2022-11-15T00:54:36;100724.53;;;6.80;100.00
44988;BME280;35735;52.226;21.254;2022-11-15T00:59:37;100707.56;;;6.83;100.00
44988;BME280;35735;52.226;21.254;2022-11-15T01:04:37;100706.75;;;6.85;100.00
44988;BME280;35735;52.226;21.254;2022-11-15T01:09:38;100703.94;;;6.79;100.00
44988;BME280;35735;52.226;21.254;2022-11-15T01:14:38;100691.56;;;6.87;100.00
44988;BME280;35735;52.226;21.254;2022-11-15T01:19:39;100680.84;;;6.87;100.00
44988;BME280;35735;52.226;21.254;2022-11-15T01:24:39;100678.03;;;6.81;100.00
44988;BME280;35735;52.226;21.254;2022-11-15T01:29:40;100681.41;;;6.71;100.00
44988;BME280;35735;52.226;21.254;2022-11-15T01:34:40;100673.25;;;6.65;100.00
44988;BME280;35735;52.226;21.254;2022-11-15T01:39:41;100663.38;;;6.64;100.00
44988;BME280;35735;52.226;21.254;2022-11-15T01:44:49;100656.09;;;6.57;100.00
44988;BME280;35735;52.226;21.254;2022-11-15T01:55:16;100639.84;;;6.49;100.00
44988;BME280;35735;52.226;21.254;2022-11-15T02:00:21;100620.97;;;6.44;100.00
44988;BME280;35735;52.226;21.254;2022-11-15T02:05:22;100614.69;;;6.42;100.00
44988;BME280;35735;52.226;21.254;2022-11-15T02:10:24;100629.81;;;6.39;100.00
44988;BME280;35735;52.226;21.254;2022-11-15T02:15:28;100617.16;;;6.33;100.00
44988;BME280;35735;52.226;21.254;2022-11-15T02:20:56;100610.88;;;6.31;100.00
44988;BME280;35735;52.226;21.254;2022-11-15T02:26:30;100604.66;;;6.32;100.00
44988;BME280;35735;52.226;21.254;2022-11-15T02:31:56;100604.66;;;6.32;100.00
44988;BME280;35735;52.226;21.254;2022-11-15T02:37:36;100597.50;;;6.33;100.00
44988;BME280;35735;52.226;21.254;2022-11-15T02:42:49;100593.03;;;6.33;100.00
44988;BME280;35735;52.226;21.254;2022-11-15T02:47:54;100598.53;;;6.39;100.00
44988;BME280;35735;52.226;21.254;2022-11-15T02:52:58;100600.28;;;6.37;100.00
44988;BME280;35735;52.226;21.254;2022-11-15T03:03:52;100593.16;;;6.39;100.00
44988;BME280;35735;52.226;21.254;2022-11-15T03:09:32;100579.69;;;6.36;100.00
44988;BME280;35735;52.226;21.254;2022-11-15T03:14:49;100576.00;;;6.29;100.00
44988;BME280;35735;52.226;21.254;2022-11-15T03:19:59;100569.69;;;6.26;100.00
44988;BME280;35735;52.226;21.254;2022-11-15T03:25:07;100560.62;;;6.21;100.00
44988;BME280;35735;52.226;21.254;2022-11-15T03:30:09;100559.78;;;6.22;100.00
44988;BME280;35735;52.226;21.254;2022-11-15T03:35:17;100549.97;;;6.24;100.00
44988;BME280;35735;52.226;21.254;2022-11-15T03:40:39;100533.84;;;6.21;100.00
44988;BME280;35735;52.226;21.254;2022-11-15T03:45:47;100524.87;;;6.19;100.00
44988;BME280;35735;52.226;21.254;2022-11-15T03:50:53;100518.63;;;6.18;100.00
44988;BME280;35735;52.226;21.254;2022-11-15T03:55:54;100514.28;;;6.25;100.00
44988;BME280;35735;52.226;21.254;2022-11-15T04:00:54;100496.44;;;6.27;100.00
44988;BME280;35735;52.226;21.254;2022-11-15T04:05:55;100490.22;;;6.29;100.00
44988;BME280;35735;52.226;21.254;2022-11-15T04:10:55;100488.41;;;6.27;100.00
44988;BME280;35735;52.226;21.254;2022-11-15T04:15:56;100487.34;;;6.19;100.00
44988;BME280;35735;52.226;21.254;2022-11-15T04:20:56;100496.19;;;6.15;100.00
44988;BME280;35735;52.226;21.254;2022-11-15T04:25:59;100476.63;;;6.19;100.00
44988;BME280;35735;52.226;21.254;2022-11-15T04:31:01;100474.00;;;6.22;100.00
44988;BME280;35735;52.226;21.254;2022-11-15T04:36:02;100472.13;;;6.18;100.00
44988;BME280;35735;52.226;21.254;2022-11-15T04:41:03;100468.38;;;6.08;100.00
44988;BME280;35735;52.226;21.254;2022-11-15T04:46:03;100471.81;;;6.01;100.00
44988;BME280;35735;52.226;21.254;2022-11-15T04:51:04;100465.66;;;6.06;100.00
44988;BME280;35735;52.226;21.254;2022-11-15T04:56:05;100456.88;;;6.14;100.00
44988;BME280;35735;52.226;21.254;2022-11-15T05:01:10;100455.06;;;6.12;100.00
44988;BME280;35735;52.226;21.254;2022-11-15T05:06:11;100453.31;;;6.15;100.00
44988;BME280;35735;52.226;21.254;2022-11-15T05:11:12;100448.06;;;6.21;100.00
44988;BME280;35735;52.226;21.254;2022-11-15T05:16:12;100443.63;;;6.23;100.00
44988;BME280;35735;52.226;21.254;2022-11-15T05:21:14;100449.03;;;6.24;100.00
44988;BME280;35735;52.226;21.254;2022-11-15T05:26:16;100447.22;;;6.22;100.00
44988;BME280;35735;52.226;21.254;2022-11-15T05:31:17;100440.03;;;6.21;100.00
44988;BME280;35735;52.226;21.254;2022-11-15T05:41:43;100439.94;;;6.16;100.00
44988;BME280;35735;52.226;21.254;2022-11-15T05:46:47;100434.53;;;6.15;100.00
44988;BME280;35735;52.226;21.254;2022-11-15T05:51:50;100432.69;;;6.10;100.00
44988;BME280;35735;52.226;21.254;2022-11-15T05:56:52;100440.75;;;6.10;100.00
44988;BME280;35735;52.226;21.254;2022-11-15T06:01:52;100438.06;;;6.10;100.00
44988;BME280;35735;52.226;21.254;2022-11-15T06:06:53;100435.38;;;6.10;100.00
44988;BME280;35735;52.226;21.254;2022-11-15T06:11:53;100436.31;;;6.12;100.00
44988;BME280;35735;52.226;21.254;2022-11-15T06:16:54;100437.22;;;6.15;100.00
44988;BME280;35735;52.226;21.254;2022-11-15T06:21:54;100433.69;;;6.16;100.00
44988;BME280;35735;52.226;21.254;2022-11-15T06:26:55;100443.56;;;6.20;100.00
44988;BME280;35735;52.226;21.254;2022-11-15T06:31:55;100444.47;;;6.19;100.00
44988;BME280;35735;52.226;21.254;2022-11-15T06:36:56;100441.63;;;6.11;100.00
44988;BME280;35735;52.226;21.254;2022-11-15T06:41:57;100429.03;;;6.05;100.00
44988;BME280;35735;52.226;21.254;2022-11-15T06:46:57;100443.44;;;6.12;100.00
44988;BME280;35735;52.226;21.254;2022-11-15T06:51:58;100443.41;;;6.10;100.00
44988;BME280;35735;52.226;21.254;2022-11-15T06:56:58;100443.34;;;6.07;100.00
44988;BME280;35735;52.226;21.254;2022-11-15T07:01:59;100447.91;;;6.11;100.00
44988;BME280;35735;52.226;21.254;2022-11-15T07:06:59;100450.72;;;6.19;100.00
44988;BME280;35735;52.226;21.254;2022-11-15T07:12:00;100454.28;;;6.18;100.00
44988;BME280;35735;52.226;21.254;2022-11-15T07:17:03;100443.56;;;6.20;100.00
44988;BME280;35735;52.226;21.254;2022-11-15T07:22:04;100438.03;;;6.09;100.00
44988;BME280;35735;52.226;21.254;2022-11-15T07:27:05;100438.84;;;6.05;100.00
44988;BME280;35735;52.226;21.254;2022-11-15T07:32:05;100435.22;;;6.03;100.00
44988;BME280;35735;52.226;21.254;2022-11-15T07:37:06;100440.56;;;6.01;100.00
44988;BME280;35735;52.226;21.254;2022-11-15T07:42:06;100439.59;;;5.98;100.00
44988;BME280;35735;52.226;21.254;2022-11-15T07:47:07;100434.31;;;6.01;100.00
44988;BME280;35735;52.226;21.254;2022-11-15T07:52:07;100431.66;;;6.02;100.00
44988;BME280;35735;52.226;21.254;2022-11-15T07:57:08;100428.25;;;6.12;100.00
44988;BME280;35735;52.226;21.254;2022-11-15T08:02:08;100434.53;;;6.15;100.00
44988;BME280;35735;52.226;21.254;2022-11-15T08:07:09;100424.78;;;6.17;100.00
44988;BME280;35735;52.226;21.254;2022-11-15T08:12:10;100420.44;;;6.23;100.00
44988;BME280;35735;52.226;21.254;2022-11-15T08:17:10;100406.25;;;6.30;100.00
44988;BME280;35735;52.226;21.254;2022-11-15T08:22:11;100398.19;;;6.29;100.00
44988;BME280;35735;52.226;21.254;2022-11-15T08:27:11;100402.66;;;6.28;100.00
44988;BME280;35735;52.226;21.254;2022-11-15T08:32:12;100397.31;;;6.30;100.00
44988;BME280;35735;52.226;21.254;2022-11-15T08:37:12;100398.28;;;6.35;100.00
44988;BME280;35735;52.226;21.254;2022-11-15T08:42:13;100391.16;;;6.37;100.00
44988;BME280;35735;52.226;21.254;2022-11-15T08:47:14;100391.12;;;6.34;100.00
44988;BME280;35735;52.226;21.254;2022-11-15T08:52:14;100385.69;;;6.31;100.00
44988;BME280;35735;52.226;21.254;2022-11-15T08:57:15;100380.34;;;6.31;100.00
44988;BME280;35735;52.226;21.254;2022-11-15T09:02:16;100380.31;;;6.29;100.00
44988;BME280;35735;52.226;21.254;2022-11-15T09:07:16;100377.66;;;6.31;100.00
44988;BME280;35735;52.226;21.254;2022-11-15T09:12:17;100371.38;;;6.29;100.00
44988;BME280;35735;52.226;21.254;2022-11-15T09:17:17;100376.69;;;6.26;100.00
44988;BME280;35735;52.226;21.254;2022-11-15T09:22:18;100374.06;;;6.29;100.00
44988;BME280;35735;52.226;21.254;2022-11-15T09:27:19;100358.87;;;6.31;100.00
44988;BME280;35735;52.226;21.254;2022-11-15T09:32:19;100363.50;;;6.38;100.00
44988;BME280;35735;52.226;21.254;2022-11-15T09:37:20;100353.69;;;6.40;100.00
44988;BME280;35735;52.226;21.254;2022-11-15T09:42:32;100342.97;;;6.40;100.00
44988;BME280;35735;52.226;21.254;2022-11-15T09:52:55;100334.91;;;6.40;100.00
44988;BME280;35735;52.226;21.254;2022-11-15T09:58:07;100309.88;;;6.40;100.00
44988;BME280;35735;52.226;21.254;2022-11-15T10:03:48;100310.88;;;6.45;100.00
44988;BME280;35735;52.226;21.254;2022-11-15T10:09:07;100311.00;;;6.56;100.00
44988;BME280;35735;52.226;21.254;2022-11-15T10:14:24;100304.81;;;6.61;100.00
44988;BME280;35735;52.226;21.254;2022-11-15T10:19:45;100304.78;;;6.60;100.00
44988;BME280;35735;52.226;21.254;2022-11-15T10:25:00;100312.84;;;6.60;100.00
44988;BME280;35735;52.226;21.254;2022-11-15T10:30:14;100312.88;;;6.63;100.00
44988;BME280;35735;52.226;21.254;2022-11-15T10:35:27;100302.25;;;6.69;100.00
44988;BME280;35735;52.226;21.254;2022-11-15T10:40:28;100294.25;;;6.71;100.00
44988;BME280;35735;52.226;21.254;2022-11-15T10:45:31;100295.06;;;6.68;100.00
44988;BME280;35735;52.226;21.254;2022-11-15T10:50:33;100290.63;;;6.68;100.00
44988;BME280;35735;52.226;21.254;2022-11-15T10:55:34;100273.72;;;6.74;100.00
44988;BME280;35735;52.226;21.254;2022-11-15T11:00:36;100281.75;;;6.74;100.00
44988;BME280;35735;52.226;21.254;2022-11-15T11:05:39;100272.88;;;6.80;100.00
44988;BME280;35735;52.226;21.254;2022-11-15T11:10:52;100273.81;;;6.80;100.00
44988;BME280;35735;52.226;21.254;2022-11-15T11:27:03;100246.12;;;6.84;100.00
44988;BME280;35735;52.226;21.254;2022-11-15T11:32:54;100244.37;;;6.90;100.00
44988;BME280;35735;52.226;21.254;2022-11-15T11:43:41;100251.53;;;6.87;100.00
44988;BME280;35735;52.226;21.254;2022-11-15T11:49:10;100234.56;;;6.89;100.00
44988;BME280;35735;52.226;21.254;2022-11-15T11:59:36;100222.91;;;6.88;100.00
44988;BME280;35735;52.226;21.254;2022-11-15T12:04:43;100217.59;;;6.93;100.00
44988;BME280;35735;52.226;21.254;2022-11-15T12:09:58;100212.22;;;6.93;100.00
44988;BME280;35735;52.226;21.254;2022-11-15T12:15:22;100205.09;;;6.95;100.00
44988;BME280;35735;52.226;21.254;2022-11-15T12:20:32;100187.16;;;6.91;100.00
44988;BME280;35735;52.226;21.254;2022-11-15T12:31:11;100175.66;;;7.01;100.00
44988;BME280;35735;52.226;21.254;2022-11-15T12:41:34;100178.38;;;7.05;100.00
44988;BME280;35735;52.226;21.254;2022-11-15T12:56:43;100168.56;;;7.08;100.00
44988;BME280;35735;52.226;21.254;2022-11-15T13:06:49;100158.69;;;7.07;100.00
44988;BME280;35735;52.226;21.254;2022-11-15T13:11:51;100153.31;;;7.07;100.00
44988;BME280;35735;52.226;21.254;2022-11-15T13:16:58;100152.47;;;7.09;100.00
44988;BME280;35735;52.226;21.254;2022-11-15T13:21:59;100147.16;;;7.12;100.00
44988;BME280;35735;52.226;21.254;2022-11-15T13:26:59;100150.66;;;7.08;100.00
44988;BME280;35735;52.226;21.254;2022-11-15T13:32:00;100141.78;;;7.12;100.00
44988;BME280;35735;52.226;21.254;2022-11-15T13:37:00;100152.50;;;7.12;100.00
44988;BME280;35735;52.226;21.254;2022-11-15T13:42:01;100136.41;;;7.12;100.00
44988;BME280;35735;52.226;21.254;2022-11-15T13:47:16;100140.09;;;7.23;100.00
44988;BME280;35735;52.226;21.254;2022-11-15T13:52:20;100134.72;;;7.23;100.00
44988;BME280;35735;52.226;21.254;2022-11-15T13:57:38;100128.41;;;7.21;100.00
44988;BME280;35735;52.226;21.254;2022-11-15T14:02:47;100115.00;;;7.23;100.00
44988;BME280;35735;52.226;21.254;2022-11-15T14:07:59;100109.66;;;7.24;100.00
44988;BME280;35735;52.226;21.254;2022-11-15T14:13:04;100115.13;;;7.34;100.00
44988;BME280;35735;52.226;21.254;2022-11-15T14:18:43;100115.16;;;7.40;100.00
44988;BME280;35735;52.226;21.254;2022-11-15T14:23:45;100117.84;;;7.37;100.00
44988;BME280;35735;52.226;21.254;2022-11-15T14:28:46;100112.47;;;7.38;100.00
44988;BME280;35735;52.226;21.254;2022-11-15T14:33:46;100108.00;;;7.39;100.00
44988;BME280;35735;52.226;21.254;2022-11-15T14:38:47;100098.09;;;7.30;100.00
44988;BME280;35735;52.226;21.254;2022-11-15T14:43:48;100101.63;;;7.28;100.00
44988;BME280;35735;52.226;21.254;2022-11-15T14:48:50;100103.38;;;7.21;100.00
44988;BME280;35735;52.226;21.254;2022-11-15T14:53:50;100098.91;;;7.18;100.00
44988;BME280;35735;52.226;21.254;2022-11-15T14:58:51;100095.28;;;7.16;100.00
44988;BME280;35735;52.226;21.254;2022-11-15T15:03:52;100094.37;;;7.14;100.00
44988;BME280;35735;52.226;21.254;2022-11-15T15:08:53;100095.34;;;7.22;100.00
44988;BME280;35735;52.226;21.254;2022-11-15T15:13:54;100105.22;;;7.25;100.00
44988;BME280;35735;52.226;21.254;2022-11-15T15:18:54;100091.78;;;7.23;100.00
44988;BME280;35735;52.226;21.254;2022-11-15T15:23:55;100091.72;;;7.19;100.00
44988;BME280;35735;52.226;21.254;2022-11-15T15:28:55;100091.69;;;7.14;100.00
44988;BME280;35735;52.226;21.254;2022-11-15T15:33:56;100088.06;;;7.09;100.00
44988;BME280;35735;52.226;21.254;2022-11-15T15:38:56;100086.25;;;7.08;100.00
44988;BME280;35735;52.226;21.254;2022-11-15T15:43:57;100094.31;;;7.05;100.00
44988;BME280;35735;52.226;21.254;2022-11-15T15:48:58;100085.34;;;7.04;100.00
44988;BME280;35735;52.226;21.254;2022-11-15T15:53:58;100079.00;;;6.98;100.00
44988;BME280;35735;52.226;21.254;2022-11-15T15:58:59;100074.37;;;6.78;100.00
44988;BME280;35735;52.226;21.254;2022-11-15T16:03:59;100078.56;;;6.55;100.00
44988;BME280;35735;52.226;21.254;2022-11-15T16:09:00;100070.56;;;6.58;100.00
44988;BME280;35735;52.226;21.254;2022-11-15T16:14:01;100062.50;;;6.52;100.00
44988;BME280;35735;52.226;21.254;2022-11-15T16:19:02;100065.97;;;6.44;100.00
44988;BME280;35735;52.226;21.254;2022-11-15T16:24:03;100062.25;;;6.30;100.00
44988;BME280;35735;52.226;21.254;2022-11-15T16:29:04;100074.56;;;6.16;100.00
44988;BME280;35735;52.226;21.254;2022-11-15T16:34:05;100068.34;;;6.17;100.00
44988;BME280;35735;52.226;21.254;2022-11-15T16:39:05;100070.91;;;6.07;100.00
44988;BME280;35735;52.226;21.254;2022-11-15T16:44:06;100063.72;;;6.05;100.00
44988;BME280;35735;52.226;21.254;2022-11-15T16:49:12;100067.97;;;5.90;100.00
44988;BME280;35735;52.226;21.254;2022-11-15T16:54:13;100060.78;;;5.88;100.00
44988;BME280;35735;52.226;21.254;2022-11-15T16:59:15;100073.25;;;5.86;100.00
44988;BME280;35735;52.226;21.254;2022-11-15T17:04:17;100066.97;;;5.84;100.00
44988;BME280;35735;52.226;21.254;2022-11-15T17:09:21;100072.25;;;5.78;100.00
44988;BME280;35735;52.226;21.254;2022-11-15T17:14:22;100067.91;;;5.86;100.00
44988;BME280;35735;52.226;21.254;2022-11-15T17:19:22;100070.50;;;5.81;100.00
44988;BME280;35735;52.226;21.254;2022-11-15T17:24:23;100065.84;;;5.66;100.00
44988;BME280;35735;52.226;21.254;2022-11-15T17:29:23;100063.87;;;5.54;100.00
44988;BME280;35735;52.226;21.254;2022-11-15T17:34:24;100060.22;;;5.48;100.00
44988;BME280;35735;52.226;21.254;2022-11-15T17:39:24;100058.50;;;5.50;100.00
44988;BME280;35735;52.226;21.254;2022-11-15T17:44:25;100059.41;;;5.52;100.00
44988;BME280;35735;52.226;21.254;2022-11-15T17:49:25;100050.34;;;5.44;100.00
44988;BME280;35735;52.226;21.254;2022-11-15T17:54:26;100060.19;;;5.43;100.00
44988;BME280;35735;52.226;21.254;2022-11-15T17:59:26;100062.06;;;5.50;100.00
44988;BME280;35735;52.226;21.254;2022-11-15T18:04:27;100055.81;;;5.50;100.00
44988;BME280;35735;52.226;21.254;2022-11-15T18:09:28;100050.47;;;5.50;100.00
44988;BME280;35735;52.226;21.254;2022-11-15T18:14:28;100052.19;;;5.48;100.00
44988;BME280;35735;52.226;21.254;2022-11-15T18:19:29;100045.88;;;5.43;100.00
44988;BME280;35735;52.226;21.254;2022-11-15T18:24:31;100034.19;;;5.37;100.00
44988;BME280;35735;52.226;21.254;2022-11-15T18:29:33;100035.06;;;5.35;100.00
44988;BME280;35735;52.226;21.254;2022-11-15T18:34:34;100035.84;;;5.29;100.00
44988;BME280;35735;52.226;21.254;2022-11-15T18:39:34;100028.62;;;5.22;100.00
44988;BME280;35735;52.226;21.254;2022-11-15T18:44:35;100037.47;;;5.16;100.00
44988;BME280;35735;52.226;21.254;2022-11-15T18:49:35;100033.75;;;5.07;100.00
44988;BME280;35735;52.226;21.254;2022-11-15T18:54:36;100036.25;;;4.97;100.00
44988;BME280;35735;52.226;21.254;2022-11-15T18:59:36;100042.25;;;4.84;100.00
44988;BME280;35735;52.226;21.254;2022-11-15T19:04:37;100045.72;;;4.77;100.00
44988;BME280;35735;52.226;21.254;2022-11-15T19:09:38;100052.88;;;4.78;100.00
44988;BME280;35735;52.226;21.254;2022-11-15T19:14:38;100036.66;;;4.69;100.00
44988;BME280;35735;52.226;21.254;2022-11-15T19:19:39;100037.53;;;4.66;100.00
44988;BME280;35735;52.226;21.254;2022-11-15T19:24:39;100035.78;;;4.68;100.00
44988;BME280;35735;52.226;21.254;2022-11-15T19:29:40;100028.84;;;4.81;100.00
44988;BME280;35735;52.226;21.254;2022-11-15T19:34:40;100028.97;;;4.89;100.00
44988;BME280;35735;52.226;21.254;2022-11-15T19:39:41;100027.13;;;4.83;100.00
44988;BME280;35735;52.226;21.254;2022-11-15T19:44:41;100017.25;;;4.80;100.00
44988;BME280;35735;52.226;21.254;2022-11-15T19:49:42;100014.72;;;4.88;100.00
44988;BME280;35735;52.226;21.254;2022-11-15T19:54:42;100026.44;;;4.96;100.00
44988;BME280;35735;52.226;21.254;2022-11-15T19:59:43;100011.41;;;5.05;100.00
44988;BME280;35735;52.226;21.254;2022-11-15T20:04:43;100012.31;;;5.05;100.00
44988;BME280;35735;52.226;21.254;2022-11-15T20:09:44;100010.59;;;5.09;100.00
44988;BME280;35735;52.226;21.254;2022-11-15T20:14:45;100008.03;;;5.16;100.00
44988;BME280;35735;52.226;21.254;2022-11-15T20:19:45;99992.87;;;5.17;100.00
44988;BME280;35735;52.226;21.254;2022-11-15T20:24:46;99994.69;;;5.18;100.00
44988;BME280;35735;52.226;21.254;2022-11-15T20:29:47;100005.31;;;5.13;100.00
44988;BME280;35735;52.226;21.254;2022-11-15T20:34:47;99999.88;;;5.09;100.00
44988;BME280;35735;52.226;21.254;2022-11-15T20:39:48;99994.56;;;5.12;100.00
44988;BME280;35735;52.226;21.254;2022-11-15T20:44:48;100001.69;;;5.10;100.00
44988;BME280;35735;52.226;21.254;2022-11-15T20:49:49;100006.13;;;5.09;100.00
44988;BME280;35735;52.226;21.254;2022-11-15T20:54:49;100008.75;;;5.08;100.00
44988;BME280;35735;52.226;21.254;2022-11-15T20:59:50;100006.16;;;5.12;100.00
44988;BME280;35735;52.226;21.254;2022-11-15T21:04:50;99997.31;;;5.15;100.00
44988;BME280;35735;52.226;21.254;2022-11-15T21:09:51;100002.75;;;5.23;100.00
44988;BME280;35735;52.226;21.254;2022-11-15T21:14:51;99997.44;;;5.24;100.00
44988;BME280;35735;52.226;21.254;2022-11-15T21:19:52;99999.19;;;5.22;100.00
44988;BME280;35735;52.226;21.254;2022-11-15T21:24:52;99983.94;;;5.15;100.00
44988;BME280;35735;52.226;21.254;2022-11-15T21:29:53;99996.22;;;5.04;100.00
44988;BME280;35735;52.226;21.254;2022-11-15T21:34:54;99997.06;;;5.01;100.00
44988;BME280;35735;52.226;21.254;2022-11-15T21:39:54;99981.88;;;4.98;100.00
44988;BME280;35735;52.226;21.254;2022-11-15T21:44:55;99989.06;;;4.99;100.00
44988;BME280;35735;52.226;21.254;2022-11-15T21:49:55;99973.00;;;4.99;100.00
44988;BME280;35735;52.226;21.254;2022-11-15T21:54:56;99958.72;;;5.00;100.00
44988;BME280;35735;52.226;21.254;2022-11-15T21:59:56;99961.34;;;4.96;100.00
44988;BME280;35735;52.226;21.254;2022-11-15T22:04:57;99952.50;;;5.00;100.00
44988;BME280;35735;52.226;21.254;2022-11-15T22:09:57;99942.63;;;4.97;100.00
44988;BME280;35735;52.226;21.254;2022-11-15T22:14:58;99946.16;;;4.93;100.00
44988;BME280;35735;52.226;21.254;2022-11-15T22:19:59;99931.94;;;4.97;100.00
44988;BME280;35735;52.226;21.254;2022-11-15T22:24:59;99916.81;;;5.01;100.00
44988;BME280;35735;52.226;21.254;2022-11-15T22:30:00;99911.53;;;5.04;100.00
44988;BME280;35735;52.226;21.254;2022-11-15T22:35:00;99915.22;;;5.12;100.00
44988;BME280;35735;52.226;21.254;2022-11-15T22:40:01;99907.22;;;5.14;100.00
44988;BME280;35735;52.226;21.254;2022-11-15T22:45:01;99901.09;;;5.24;100.00
44988;BME280;35735;52.226;21.254;2022-11-15T22:50:02;99904.59;;;5.18;100.00
44988;BME280;35735;52.226;21.254;2022-11-15T22:55:03;99898.31;;;5.15;100.00
44988;BME280;35735;52.226;21.254;2022-11-15T23:00:08;99891.12;;;5.12;100.00
44988;BME280;35735;52.226;21.254;2022-11-15T23:05:11;99893.84;;;5.15;100.00
44988;BME280;35735;52.226;21.254;2022-11-15T23:10:11;99888.41;;;5.09;100.00
44988;BME280;35735;52.226;21.254;2022-11-15T23:15:12;99884.03;;;5.13;100.00
44988;BME280;35735;52.226;21.254;2022-11-15T23:20:13;99875.00;;;5.08;100.00
44988;BME280;35735;52.226;21.254;2022-11-15T23:25:13;99875.00;;;5.05;100.00
44988;BME280;35735;52.226;21.254;2022-11-15T23:30:14;99874.94;;;5.01;100.00
44988;BME280;35735;52.226;21.254;2022-11-15T23:35:15;99870.47;;;5.00;100.00
44988;BME280;35735;52.226;21.254;2022-11-15T23:40:16;99879.47;;;5.07;100.00
44988;BME280;35735;52.226;21.254;2022-11-15T23:45:17;99877.81;;;5.15;100.00
44988;BME280;35735;52.226;21.254;2022-11-15T23:50:17;99873.50;;;5.27;100.00
44988;BME280;35735;52.226;21.254;2022-11-15T23:55:18;99863.69;;;5.27;100.00
